createdAt,value
2019-03-30T00:00:30.980Z,60.20
2019-03-30T00:03:02.350Z,60.24
2019-03-30T00:05:32.778Z,60.87
2019-03-30T00:08:03.196Z,61.09
2019-03-30T00:10:33.748Z,61.26
2019-03-30T00:13:04.165Z,60.95
2019-03-30T00:15:34.611Z,61.47
2019-03-30T00:18:05.001Z,61.42
2019-03-30T00:20:35.458Z,61.85
2019-03-30T00:23:05.860Z,61.05
2019-03-30T00:25:36.359Z,62.08
2019-03-30T00:28:06.775Z,61.53
2019-03-30T00:30:37.246Z,62.58
2019-03-30T00:33:07.689Z,62.98
2019-03-30T00:35:38.167Z,62.72
2019-03-30T00:38:08.599Z,62.99
2019-03-30T00:40:39.060Z,62.81
2019-03-30T00:43:09.501Z,63.04
2019-03-30T00:45:39.984Z,62.42
2019-03-30T00:48:10.454Z,62.21
2019-03-30T00:50:40.959Z,62.33
2019-03-30T00:53:11.376Z,62.60
2019-03-30T00:55:41.838Z,62.16
2019-03-30T00:58:12.259Z,62.46
2019-03-30T01:00:42.753Z,61.95
2019-03-30T01:03:13.394Z,62.77
2019-03-30T01:05:43.834Z,62.97
2019-03-30T01:08:14.261Z,62.92
2019-03-30T01:10:44.804Z,62.73
2019-03-30T01:13:15.235Z,63.36
2019-03-30T01:15:47.121Z,63.10
2019-03-30T01:18:17.543Z,63.62
2019-03-30T01:20:48.018Z,63.82
2019-03-30T01:23:18.445Z,64.37
2019-03-30T01:25:48.920Z,65.77
2019-03-30T01:28:19.367Z,65.93
2019-03-30T01:30:49.819Z,66.09
2019-03-30T01:33:20.265Z,66.21
2019-03-30T01:35:50.704Z,65.62
2019-03-30T01:38:21.149Z,66.13
2019-03-30T01:40:51.625Z,65.95
2019-03-30T01:43:22.061Z,66.16
2019-03-30T01:45:52.527Z,65.81
2019-03-30T01:48:22.934Z,65.90
2019-03-30T01:50:53.377Z,65.83
2019-03-30T01:53:23.743Z,66.43
2019-03-30T01:55:54.228Z,66.56
2019-03-30T01:58:24.660Z,66.30
2019-03-30T02:00:55.125Z,66.35
2019-03-30T02:03:26.440Z,66.54
2019-03-30T02:05:56.913Z,66.79
2019-03-30T02:08:27.328Z,66.58
2019-03-30T02:10:57.880Z,66.81
2019-03-30T02:13:28.286Z,66.82
2019-03-30T02:15:58.736Z,67.11
2019-03-30T02:18:29.438Z,67.40
2019-03-30T02:20:59.970Z,67.57
2019-03-30T02:23:30.393Z,67.45
2019-03-30T02:26:00.847Z,67.73
2019-03-30T02:28:31.273Z,68.20
2019-03-30T02:31:01.764Z,68.12
2019-03-30T02:33:32.185Z,68.33
2019-03-30T02:36:02.694Z,68.31
2019-03-30T02:38:33.110Z,68.62
2019-03-30T02:41:03.609Z,68.59
2019-03-30T02:43:34.041Z,68.41
2019-03-30T02:46:06.559Z,68.62
2019-03-30T02:48:36.989Z,68.75
2019-03-30T02:51:07.450Z,68.93
2019-03-30T02:53:37.860Z,69.24
2019-03-30T02:56:08.361Z,69.21
2019-03-30T02:58:38.762Z,69.44
2019-03-30T03:01:09.266Z,69.19
2019-03-30T03:03:40.560Z,69.85
2019-03-30T03:06:11.136Z,69.91
2019-03-30T03:08:41.545Z,69.94
2019-03-30T03:11:12.111Z,70.16
2019-03-30T03:13:42.550Z,70.96
2019-03-30T03:16:13.044Z,70.64
2019-03-30T03:18:43.429Z,70.46
2019-03-30T03:21:13.902Z,70.28
2019-03-30T03:23:44.303Z,70.63
2019-03-30T03:26:14.786Z,70.20
2019-03-30T03:28:45.216Z,70.46
2019-03-30T03:31:15.680Z,70.55
2019-03-30T03:33:46.130Z,70.22
2019-03-30T03:36:16.570Z,70.42
2019-03-30T03:38:46.944Z,70.48
2019-03-30T03:41:17.438Z,70.45
2019-03-30T03:43:47.865Z,70.54
2019-03-30T03:46:18.331Z,70.57
2019-03-30T03:48:48.782Z,70.14
2019-03-30T03:51:26.072Z,70.34
2019-03-30T03:53:53.202Z,70.56
2019-03-30T03:56:25.949Z,70.52
2019-03-30T03:58:57.888Z,69.94
2019-03-30T04:01:28.572Z,69.80
2019-03-30T04:04:00.662Z,70.11
2019-03-30T04:06:33.005Z,70.22
2019-03-30T04:09:04.887Z,69.97
2019-03-30T04:11:38.093Z,69.83
2019-03-30T04:14:11.743Z,69.76
2019-03-30T04:16:42.202Z,69.73
2019-03-30T04:19:12.606Z,69.37
2019-03-30T04:21:44.811Z,69.72
2019-03-30T04:24:15.201Z,69.39
2019-03-30T04:26:45.685Z,69.20
2019-03-30T04:29:16.104Z,68.88
2019-03-30T04:31:46.597Z,68.52
2019-03-30T04:34:17.037Z,68.42
2019-03-30T04:36:47.562Z,67.76
2019-03-30T04:39:18.001Z,67.62
2019-03-30T04:41:48.486Z,67.94
2019-03-30T04:44:18.912Z,67.30
2019-03-30T04:46:49.411Z,67.04
2019-03-30T04:49:19.854Z,66.89
2019-03-30T04:51:57.415Z,66.81
2019-03-30T04:54:22.499Z,67.17
2019-03-30T04:56:52.990Z,66.57
2019-03-30T04:59:23.437Z,66.50
2019-03-30T05:01:53.927Z,66.14
2019-03-30T05:04:25.280Z,65.10
2019-03-30T05:06:55.785Z,65.19
2019-03-30T05:09:26.213Z,64.90
2019-03-30T05:11:56.784Z,63.94
2019-03-30T05:14:27.282Z,64.37
2019-03-30T05:16:57.792Z,63.76
2019-03-30T05:19:28.275Z,64.60
2019-03-30T05:22:11.443Z,63.64
2019-03-30T05:24:30.901Z,62.74
2019-03-30T05:27:01.404Z,62.62
2019-03-30T05:29:31.855Z,62.59
2019-03-30T05:32:02.339Z,62.04
2019-03-30T05:34:32.783Z,62.37
2019-03-30T05:37:03.299Z,63.05
2019-03-30T05:39:33.756Z,62.55
2019-03-30T05:42:04.224Z,62.47
2019-03-30T05:44:34.670Z,62.49
2019-03-30T05:47:05.140Z,62.79
2019-03-30T05:49:35.596Z,62.90
2019-03-30T05:52:06.096Z,62.24
2019-03-30T05:54:36.564Z,62.46
2019-03-30T05:57:07.065Z,61.66
2019-03-30T05:59:37.553Z,60.80
2019-03-30T06:02:08.022Z,61.64
2019-03-30T06:04:38.803Z,61.50
2019-03-30T06:07:09.291Z,62.58
2019-03-30T06:09:39.764Z,61.85
2019-03-30T06:12:10.320Z,60.80
2019-03-30T06:14:40.744Z,60.41
2019-03-30T06:17:11.248Z,59.77
2019-03-30T06:19:41.702Z,58.85
2019-03-30T06:22:12.169Z,59.41
2019-03-30T06:24:42.593Z,59.81
2019-03-30T06:27:13.083Z,59.73
2019-03-30T06:29:43.477Z,60.69
2019-03-30T06:32:13.970Z,60.11
2019-03-30T06:34:44.414Z,59.73
2019-03-30T06:37:14.915Z,59.90
2019-03-30T06:39:45.354Z,59.08
2019-03-30T06:42:15.807Z,58.56
2019-03-30T06:44:46.284Z,58.04
2019-03-30T06:47:16.807Z,58.11
2019-03-30T06:49:47.290Z,58.30
2019-03-30T06:52:17.890Z,58.06
2019-03-30T06:54:48.353Z,58.40
2019-03-30T06:57:18.835Z,57.46
2019-03-30T06:59:49.299Z,57.31
2019-03-30T07:02:19.821Z,57.83
2019-03-30T07:04:51.789Z,58.02
2019-03-30T07:07:23.718Z,58.05
2019-03-30T07:09:54.241Z,58.49
2019-03-30T07:12:24.892Z,57.66
2019-03-30T07:14:58.279Z,57.99
2019-03-30T07:17:29.974Z,57.70
2019-03-30T07:20:02.734Z,57.44
2019-03-30T07:22:33.244Z,56.47
2019-03-30T07:25:03.800Z,56.25
2019-03-30T07:27:34.326Z,56.11
2019-03-30T07:30:08.564Z,55.36
2019-03-30T07:32:39.092Z,55.26
2019-03-30T07:35:09.538Z,55.03
2019-03-30T07:37:40.052Z,54.19
2019-03-30T07:40:10.727Z,53.43
2019-03-30T07:42:41.192Z,54.78
2019-03-30T07:45:12.943Z,55.97
2019-03-30T07:47:43.481Z,55.91
2019-03-30T07:50:14.009Z,55.09
2019-03-30T07:52:44.519Z,56.43
2019-03-30T07:55:14.976Z,56.33
2019-03-30T07:57:45.468Z,55.48
2019-03-30T08:00:16.829Z,55.80
2019-03-30T08:02:47.322Z,55.79
2019-03-30T08:05:18.785Z,54.40
2019-03-30T08:07:49.259Z,54.57
2019-03-30T08:10:19.789Z,54.91
2019-03-30T08:12:50.354Z,54.19
2019-03-30T08:15:20.939Z,54.07
2019-03-30T08:17:53.199Z,55.28
2019-03-30T08:20:24.150Z,55.02
2019-03-30T08:22:54.614Z,54.34
2019-03-30T08:25:25.205Z,52.95
2019-03-30T08:27:55.704Z,52.26
2019-03-30T08:30:26.145Z,51.32
2019-03-30T08:32:56.735Z,52.28
2019-03-30T08:35:27.230Z,53.02
2019-03-30T08:37:57.828Z,53.07
2019-03-30T08:40:28.368Z,53.47
2019-03-30T08:42:58.902Z,53.28
2019-03-30T08:45:29.377Z,53.94
2019-03-30T08:47:59.887Z,54.84
2019-03-30T08:50:30.346Z,55.42
2019-03-30T08:53:00.879Z,54.72
2019-03-30T08:55:31.372Z,55.21
2019-03-30T08:58:01.975Z,56.38
2019-03-30T09:00:40.268Z,55.57
2019-03-30T09:03:10.991Z,55.67
2019-03-30T09:05:42.388Z,55.31
2019-03-30T09:08:12.897Z,55.48
2019-03-30T09:10:43.450Z,55.18
2019-03-30T09:13:15.626Z,53.85
2019-03-30T09:15:46.083Z,54.62
2019-03-30T09:18:16.607Z,55.33
2019-03-30T09:20:47.074Z,54.74
2019-03-30T09:23:17.619Z,55.76
2019-03-30T09:25:48.098Z,54.96
2019-03-30T09:28:18.730Z,53.67
2019-03-30T09:30:49.170Z,55.00
2019-03-30T09:33:19.782Z,55.70
2019-03-30T09:35:50.318Z,56.46
2019-03-30T09:38:20.855Z,56.87
2019-03-30T09:40:51.361Z,56.64
2019-03-30T09:43:21.867Z,57.69
2019-03-30T09:45:52.353Z,57.34
2019-03-30T09:48:22.861Z,57.30
2019-03-30T09:50:53.312Z,55.51
2019-03-30T09:53:23.800Z,55.96
2019-03-30T09:55:54.277Z,55.22
2019-03-30T09:58:24.774Z,53.78
2019-03-30T10:00:55.220Z,52.82
2019-03-30T10:03:25.748Z,51.53
2019-03-30T10:05:57.082Z,52.19
2019-03-30T10:08:27.632Z,51.88
2019-03-30T10:10:58.131Z,52.66
2019-03-30T10:13:28.750Z,52.71
2019-03-30T10:15:59.218Z,53.30
2019-03-30T10:18:29.813Z,52.64
2019-03-30T10:21:00.277Z,52.36
2019-03-30T10:23:30.806Z,53.17
2019-03-30T10:26:01.351Z,53.68
2019-03-30T10:28:31.899Z,54.02
2019-03-30T10:31:02.390Z,54.06
2019-03-30T10:33:32.913Z,53.55
2019-03-30T10:36:03.371Z,54.34
2019-03-30T10:38:34.277Z,54.36
2019-03-30T10:41:04.734Z,53.81
2019-03-30T10:43:35.323Z,53.24
2019-03-30T10:46:06.241Z,52.20
2019-03-30T10:48:36.877Z,53.58
2019-03-30T10:51:07.365Z,52.65
2019-03-30T10:53:39.427Z,53.85
2019-03-30T10:56:09.979Z,53.79
2019-03-30T10:58:40.492Z,54.18
2019-03-30T11:01:11.082Z,54.73
2019-03-30T11:03:41.599Z,54.42
2019-03-30T11:06:13.003Z,54.17
2019-03-30T11:08:43.708Z,53.01
2019-03-30T11:11:14.240Z,53.96
2019-03-30T11:13:44.851Z,55.01
2019-03-30T11:16:15.317Z,54.01
2019-03-30T11:18:45.894Z,54.80
2019-03-30T11:21:16.502Z,55.58
2019-03-30T11:23:47.033Z,55.05
2019-03-30T11:26:17.869Z,54.52
2019-03-30T11:28:48.417Z,55.19
2019-03-30T11:31:19.901Z,55.78
2019-03-30T11:33:50.395Z,54.05
2019-03-30T11:36:20.846Z,53.81
2019-03-30T11:38:51.399Z,53.84
2019-03-30T11:41:24.851Z,53.71
2019-03-30T11:43:53.994Z,52.69
2019-03-30T11:46:24.437Z,52.47
2019-03-30T11:48:54.938Z,52.63
2019-03-30T11:51:26.640Z,52.62
2019-03-30T11:53:57.177Z,50.92
2019-03-30T11:56:27.606Z,50.57
2019-03-30T11:58:58.127Z,50.02
2019-03-30T12:01:28.656Z,49.63
2019-03-30T12:03:59.109Z,49.77
2019-03-30T12:06:30.362Z,49.51
2019-03-30T12:09:00.866Z,48.98
2019-03-30T12:11:31.299Z,47.82
2019-03-30T12:14:01.857Z,46.67
2019-03-30T12:16:32.295Z,46.12
2019-03-30T12:19:02.905Z,44.68
2019-03-30T12:21:33.341Z,45.24
2019-03-30T12:24:03.798Z,42.47
2019-03-30T12:26:34.227Z,40.75
2019-03-30T12:29:04.700Z,37.87
2019-03-30T12:31:35.117Z,36.95
2019-03-30T12:34:05.581Z,36.50
2019-03-30T12:36:36.129Z,35.05
2019-03-30T12:39:08.235Z,36.58
2019-03-30T12:41:38.657Z,35.72
2019-03-30T12:44:09.144Z,35.85
2019-03-30T12:46:39.585Z,38.66
2019-03-30T12:49:10.109Z,38.58
2019-03-30T12:51:40.527Z,35.78
2019-03-30T12:54:11.025Z,35.91
2019-03-30T12:56:41.471Z,35.97
2019-03-30T12:59:11.949Z,34.37
2019-03-30T13:01:42.386Z,32.84
2019-03-30T13:04:12.859Z,35.18
2019-03-30T13:06:44.175Z,33.91
2019-03-30T13:09:14.646Z,33.76
2019-03-30T13:11:45.089Z,35.80
2019-03-30T13:14:15.667Z,38.66
2019-03-30T13:16:46.106Z,39.50
2019-03-30T13:19:16.600Z,41.12
2019-03-30T13:21:52.790Z,42.09
2019-03-30T13:24:19.238Z,42.39
2019-03-30T13:26:49.692Z,39.96
2019-03-30T13:29:20.204Z,40.42
2019-03-30T13:31:50.625Z,40.78
2019-03-30T13:34:21.034Z,39.49
2019-03-30T13:36:51.464Z,38.69
2019-03-30T13:39:21.956Z,39.08
2019-03-30T13:41:52.395Z,38.93
2019-03-30T13:44:22.880Z,39.64
2019-03-30T13:46:53.338Z,38.38
2019-03-30T13:49:23.817Z,36.92
2019-03-30T13:51:54.271Z,34.92
2019-03-30T13:54:24.749Z,36.64
2019-03-30T13:56:55.186Z,36.13
2019-03-30T13:59:25.671Z,35.76
2019-03-30T14:01:56.092Z,36.50
2019-03-30T14:04:26.572Z,36.31
2019-03-30T14:06:58.079Z,36.92
2019-03-30T14:09:28.564Z,36.72
2019-03-30T14:11:59.011Z,38.20
2019-03-30T14:14:29.559Z,39.69
2019-03-30T14:17:00.015Z,41.56
2019-03-30T14:19:30.518Z,42.88
2019-03-30T14:22:00.997Z,44.27
2019-03-30T14:24:31.498Z,44.65
2019-03-30T14:27:01.909Z,45.37
2019-03-30T14:29:32.395Z,45.95
2019-03-30T14:32:02.864Z,47.00
2019-03-30T14:34:33.320Z,47.54
2019-03-30T14:37:03.774Z,47.62
2019-03-30T14:39:34.259Z,47.18
2019-03-30T14:42:04.914Z,48.88
2019-03-30T14:44:35.372Z,48.08
2019-03-30T14:47:05.819Z,49.53
2019-03-30T14:49:36.298Z,49.25
2019-03-30T14:52:06.737Z,50.50
2019-03-30T14:54:37.273Z,50.14
2019-03-30T14:57:07.715Z,49.88
2019-03-30T14:59:38.247Z,50.08
2019-03-30T15:02:08.694Z,50.54
2019-03-30T15:04:39.274Z,50.80
2019-03-30T15:07:11.443Z,51.26
2019-03-30T15:09:41.964Z,51.72
2019-03-30T15:12:12.482Z,51.05
2019-03-30T15:14:43.063Z,51.83
2019-03-30T15:17:13.511Z,51.36
2019-03-30T15:19:44.029Z,52.78
2019-03-30T15:22:14.526Z,52.02
2019-03-30T15:24:45.007Z,52.85
2019-03-30T15:27:15.441Z,53.47
2019-03-30T15:29:45.891Z,53.17
2019-03-30T15:32:16.325Z,54.17
2019-03-30T15:34:46.789Z,54.59
2019-03-30T15:37:17.279Z,54.47
2019-03-30T15:39:47.879Z,54.31
2019-03-30T15:42:18.377Z,54.14
2019-03-30T15:44:48.842Z,54.36
2019-03-30T15:47:19.270Z,54.66
2019-03-30T15:49:49.736Z,54.90
2019-03-30T15:52:20.346Z,55.53
2019-03-30T15:54:50.823Z,55.23
2019-03-30T15:57:21.276Z,54.83
2019-03-30T15:59:51.795Z,54.95
2019-03-30T16:02:22.638Z,55.99
2019-03-30T16:04:53.111Z,55.86
2019-03-30T16:07:24.405Z,56.12
2019-03-30T16:09:54.944Z,56.82
2019-03-30T16:12:25.376Z,57.43
2019-03-30T16:14:55.923Z,57.66
2019-03-30T16:17:26.365Z,58.21
2019-03-30T16:19:56.874Z,58.23
2019-03-30T16:22:27.307Z,58.01
2019-03-30T16:24:57.801Z,57.64
2019-03-30T16:27:29.505Z,58.76
2019-03-30T16:30:00.314Z,59.65
2019-03-30T16:32:30.818Z,59.36
2019-03-30T16:35:01.279Z,60.72
2019-03-30T16:37:31.726Z,60.36
2019-03-30T16:40:02.313Z,60.90
2019-03-30T16:42:32.770Z,61.04
2019-03-30T16:45:03.271Z,61.18
2019-03-30T16:47:33.811Z,61.35
2019-03-30T16:50:05.555Z,61.62
2019-03-30T16:52:36.040Z,61.52
2019-03-30T16:55:06.617Z,61.37
2019-03-30T16:57:43.666Z,61.82
2019-03-30T17:00:09.996Z,62.55
2019-03-30T17:02:40.449Z,62.97
2019-03-30T17:05:11.726Z,62.27
2019-03-30T17:07:43.122Z,62.72
2019-03-30T17:10:13.706Z,62.72
2019-03-30T17:12:44.161Z,63.73
2019-03-30T17:15:14.730Z,63.65
2019-03-30T17:17:45.194Z,64.31
2019-03-30T17:20:15.699Z,64.31
2019-03-30T17:22:46.144Z,64.41
2019-03-30T17:25:16.642Z,64.28
2019-03-30T17:27:58.145Z,65.11
2019-03-30T17:30:19.271Z,64.94
2019-03-30T17:32:49.739Z,65.09
2019-03-30T17:35:20.218Z,65.11
2019-03-30T17:37:50.659Z,65.33
2019-03-30T17:40:21.174Z,66.06
2019-03-30T17:42:51.620Z,65.51
2019-03-30T17:45:22.117Z,65.66
2019-03-30T17:47:52.572Z,65.63
2019-03-30T17:50:23.041Z,66.03
2019-03-30T17:52:53.510Z,65.77
2019-03-30T17:55:33.486Z,65.61
2019-03-30T17:57:56.171Z,66.59
2019-03-30T18:00:26.619Z,66.38
2019-03-30T18:02:57.041Z,66.60
2019-03-30T18:05:27.528Z,67.20
2019-03-30T18:08:01.698Z,66.70
2019-03-30T18:10:31.025Z,66.86
2019-03-30T18:13:01.467Z,67.50
2019-03-30T18:15:34.642Z,67.12
2019-03-30T18:18:04.144Z,66.85
2019-03-30T18:20:34.605Z,66.53
2019-03-30T18:23:05.033Z,67.15
2019-03-30T18:25:35.531Z,68.11
2019-03-30T18:28:05.969Z,67.79
2019-03-30T18:30:39.348Z,67.97
2019-03-30T18:33:09.944Z,68.69
2019-03-30T18:35:41.023Z,69.02
2019-03-30T18:38:13.065Z,69.15
2019-03-30T18:40:43.887Z,69.39
2019-03-30T18:43:14.341Z,69.57
2019-03-30T18:45:44.846Z,69.78
2019-03-30T18:48:17.031Z,69.92
2019-03-30T18:50:47.930Z,69.82
2019-03-30T18:53:18.380Z,70.13
2019-03-30T18:55:48.888Z,70.32
2019-03-30T18:58:19.356Z,70.13
2019-03-30T19:00:49.862Z,70.18
2019-03-30T19:03:22.234Z,70.47
2019-03-30T19:05:52.740Z,71.04
2019-03-30T19:08:24.082Z,71.06
2019-03-30T19:10:54.583Z,70.88
2019-03-30T19:13:25.060Z,70.98
2019-03-30T19:15:55.641Z,70.96
2019-03-30T19:18:26.113Z,71.77
2019-03-30T19:20:56.613Z,72.46
2019-03-30T19:23:27.059Z,72.86
2019-03-30T19:25:57.569Z,72.47
2019-03-30T19:28:28.184Z,72.41
2019-03-30T19:30:58.660Z,73.11
2019-03-30T19:33:29.169Z,73.94
2019-03-30T19:35:59.659Z,73.88
2019-03-30T19:38:30.100Z,74.68
2019-03-30T19:41:00.572Z,74.61
2019-03-30T19:43:31.060Z,75.30
2019-03-30T19:46:01.547Z,75.25
2019-03-30T19:48:31.986Z,74.59
2019-03-30T19:51:02.508Z,75.20
2019-03-30T19:53:32.923Z,75.26
2019-03-30T19:56:03.411Z,75.41
2019-03-30T19:58:33.859Z,75.16
2019-03-30T20:01:04.410Z,75.96
2019-03-30T20:03:34.935Z,75.86
2019-03-30T20:06:05.348Z,76.00
2019-03-30T20:08:36.716Z,76.14
2019-03-30T20:11:07.238Z,76.13
2019-03-30T20:13:37.717Z,76.14
2019-03-30T20:16:08.268Z,75.59
2019-03-30T20:18:38.712Z,75.58
2019-03-30T20:21:09.193Z,76.10
2019-03-30T20:23:39.629Z,76.69
2019-03-30T20:26:10.123Z,76.83
2019-03-30T20:28:40.574Z,76.50
2019-03-30T20:31:11.072Z,76.25
2019-03-30T20:33:41.500Z,76.59
2019-03-30T20:36:12.001Z,76.77
2019-03-30T20:38:42.457Z,76.34
2019-03-30T20:41:13.323Z,76.42
2019-03-30T20:43:43.795Z,76.65
2019-03-30T20:46:14.280Z,77.03
2019-03-30T20:48:44.751Z,77.24
2019-03-30T20:51:15.296Z,77.34
2019-03-30T20:53:45.800Z,77.24
2019-03-30T20:56:16.309Z,77.24
2019-03-30T20:58:46.783Z,77.11
2019-03-30T21:01:17.265Z,77.12
2019-03-30T21:03:47.711Z,76.90
2019-03-30T21:06:18.228Z,76.74
2019-03-30T21:08:49.553Z,77.07
2019-03-30T21:11:20.026Z,77.44
2019-03-30T21:13:50.512Z,77.58
2019-03-30T21:16:21.080Z,77.12
2019-03-30T21:18:51.528Z,76.52
2019-03-30T21:21:22.014Z,77.44
2019-03-30T21:23:52.434Z,77.20
2019-03-30T21:26:22.906Z,77.72
2019-03-30T21:28:53.374Z,77.25
2019-03-30T21:31:23.910Z,77.49
2019-03-30T21:33:54.396Z,77.12
2019-03-30T21:36:24.911Z,77.07
2019-03-30T21:38:55.384Z,77.75
2019-03-30T21:41:25.876Z,78.03
2019-03-30T21:43:56.361Z,78.39
2019-03-30T21:46:26.870Z,78.94
2019-03-30T21:48:57.327Z,79.41
2019-03-30T21:51:27.828Z,79.43
2019-03-30T21:53:58.269Z,79.69
2019-03-30T21:56:28.729Z,79.48
2019-03-30T21:58:59.154Z,79.35
2019-03-30T22:01:29.665Z,79.30
2019-03-30T22:04:00.117Z,80.04
2019-03-30T22:06:30.728Z,80.73
2019-03-30T22:09:02.059Z,80.58
2019-03-30T22:11:32.551Z,80.62
2019-03-30T22:14:02.977Z,81.22
2019-03-30T22:16:33.543Z,80.77
2019-03-30T22:19:04.010Z,80.37
2019-03-30T22:21:34.492Z,80.69
2019-03-30T22:24:04.928Z,81.31
2019-03-30T22:26:35.401Z,82.15
2019-03-30T22:29:05.846Z,81.88
2019-03-30T22:31:36.231Z,82.09
2019-03-30T22:34:06.710Z,82.25
2019-03-30T22:36:37.192Z,82.24
2019-03-30T22:39:08.029Z,82.17
2019-03-30T22:41:38.512Z,82.61
2019-03-30T22:44:08.970Z,83.01
2019-03-30T22:46:39.450Z,83.23
2019-03-30T22:49:09.894Z,82.61
2019-03-30T22:51:40.347Z,82.72
2019-03-30T22:54:10.809Z,82.71
2019-03-30T22:56:41.282Z,83.07
2019-03-30T22:59:11.731Z,83.33
2019-03-30T23:01:42.341Z,83.08
2019-03-30T23:04:12.758Z,83.06
2019-03-30T23:06:43.219Z,82.89
2019-03-30T23:09:14.598Z,82.66
2019-03-30T23:11:45.131Z,82.31
2019-03-30T23:14:15.544Z,81.96
2019-03-30T23:16:46.140Z,82.51
2019-03-30T23:19:16.582Z,82.04
2019-03-30T23:21:47.035Z,81.71
2019-03-30T23:24:17.505Z,82.08
2019-03-30T23:26:47.984Z,83.01
2019-03-30T23:29:18.449Z,84.17
2019-03-30T23:31:48.935Z,83.96
2019-03-30T23:34:19.372Z,83.09
2019-03-30T23:36:49.891Z,83.03
2019-03-30T23:39:20.336Z,83.69
2019-03-30T23:41:50.820Z,83.64
2019-03-30T23:44:21.272Z,84.41
2019-03-30T23:46:51.742Z,84.43
2019-03-30T23:49:22.181Z,84.62
2019-03-30T23:51:52.683Z,84.41
2019-03-30T23:54:23.115Z,84.58
2019-03-30T23:56:53.652Z,85.00
2019-03-30T23:59:24.087Z,85.11
